createdAt,value
2023-04-09T00:00:14.468Z,83.91
2023-04-09T00:01:11.834Z,83.23
2023-04-09T00:02:11.146Z,83.95
2023-04-09T00:03:08.069Z,83.82
2023-04-09T00:04:05.149Z,83.57
2023-04-09T00:05:02.357Z,83.80
2023-04-09T00:05:59.063Z,83.34
2023-04-09T00:06:55.712Z,82.61
2023-04-09T00:07:52.346Z,82.20
2023-04-09T00:08:49.000Z,82.56
2023-04-09T00:09:45.702Z,82.82
2023-04-09T00:10:42.297Z,83.56
2023-04-09T00:11:38.918Z,83.68
2023-04-09T00:12:35.746Z,83.59
2023-04-09T00:13:39.319Z,83.66
2023-04-09T00:14:36.584Z,83.92
2023-04-09T00:15:33.204Z,84.46
2023-04-09T00:16:29.820Z,84.87
2023-04-09T00:17:26.766Z,84.51
2023-04-09T00:18:23.458Z,84.19
2023-04-09T00:19:20.783Z,83.06
2023-04-09T00:20:17.443Z,82.26
2023-04-09T00:21:14.947Z,81.97
2023-04-09T00:22:11.536Z,81.64
2023-04-09T00:23:08.096Z,81.56
2023-04-09T00:24:04.942Z,82.32
2023-04-09T00:25:01.620Z,83.18
2023-04-09T00:25:58.532Z,83.77
2023-04-09T00:26:55.803Z,83.62
2023-04-09T00:27:52.397Z,83.08
2023-04-09T00:28:49.160Z,82.43
2023-04-09T00:29:46.022Z,82.16
2023-04-09T00:30:42.645Z,82.83
2023-04-09T00:31:39.314Z,82.29
2023-04-09T00:32:36.168Z,81.87
2023-04-09T00:33:32.852Z,81.05
2023-04-09T00:34:29.514Z,81.13
2023-04-09T00:35:26.124Z,82.24
2023-04-09T00:36:24.114Z,82.64
2023-04-09T00:37:21.861Z,83.30
2023-04-09T00:38:18.521Z,83.10
2023-04-09T00:39:15.417Z,83.43
2023-04-09T00:40:12.101Z,83.62
2023-04-09T00:41:08.794Z,83.73
2023-04-09T00:42:05.380Z,84.10
2023-04-09T00:43:02.528Z,83.78
2023-04-09T00:43:59.129Z,83.72
2023-04-09T00:44:55.691Z,82.98
2023-04-09T00:45:52.395Z,82.06
2023-04-09T00:46:49.205Z,81.79
2023-04-09T00:47:46.857Z,82.58
2023-04-09T00:48:43.840Z,83.10
2023-04-09T00:49:40.722Z,83.38
2023-04-09T00:50:37.501Z,83.79
2023-04-09T00:51:34.429Z,84.71
2023-04-09T00:52:31.164Z,84.54
2023-04-09T00:53:27.972Z,83.91
2023-04-09T00:54:24.719Z,84.02
2023-04-09T00:55:21.604Z,84.16
2023-04-09T00:56:19.913Z,83.45
2023-04-09T00:57:16.908Z,83.12
2023-04-09T00:58:14.240Z,82.74
2023-04-09T00:59:11.201Z,82.76
2023-04-09T01:00:08.550Z,82.51
2023-04-09T01:01:05.424Z,83.06
2023-04-09T01:02:02.369Z,83.27
2023-04-09T01:03:00.918Z,83.10
2023-04-09T01:03:57.796Z,83.55
2023-04-09T01:04:54.637Z,83.55
2023-04-09T01:06:17.802Z,83.21
2023-04-09T01:07:46.681Z,83.39
2023-04-09T01:09:14.593Z,82.61
2023-04-09T01:10:24.678Z,82.24
2023-04-09T01:12:01.459Z,82.69
2023-04-09T01:13:08.732Z,82.67
2023-04-09T01:14:24.247Z,82.67
2023-04-09T01:15:31.359Z,83.31
2023-04-09T01:16:29.825Z,83.39
2023-04-09T01:18:04.623Z,83.46
2023-04-09T01:19:18.813Z,83.19
2023-04-09T01:20:37.540Z,82.86
2023-04-09T01:21:34.795Z,82.80
2023-04-09T01:22:39.486Z,82.53
2023-04-09T01:24:02.869Z,82.40
2023-04-09T01:25:08.750Z,82.45
2023-04-09T01:26:22.813Z,83.20
2023-04-09T01:27:20.033Z,82.65
2023-04-09T01:28:19.657Z,82.73
2023-04-09T01:29:20.430Z,82.64
2023-04-09T01:30:18.149Z,82.69
2023-04-09T01:31:19.085Z,82.41
2023-04-09T01:32:18.647Z,83.05
2023-04-09T01:33:17.732Z,83.01
2023-04-09T01:34:16.202Z,83.33
2023-04-09T01:35:14.058Z,83.42
2023-04-09T01:36:11.611Z,83.23
2023-04-09T01:37:09.540Z,82.99
2023-04-09T01:38:06.861Z,82.01
2023-04-09T01:39:03.638Z,81.63
2023-04-09T01:40:01.630Z,81.37
2023-04-09T01:41:01.145Z,81.74
2023-04-09T01:41:58.040Z,81.85
2023-04-09T01:42:55.573Z,82.56
2023-04-09T01:43:53.277Z,83.02
2023-04-09T01:44:50.490Z,83.04
2023-04-09T01:45:48.214Z,82.43
2023-04-09T01:46:47.283Z,81.92
2023-04-09T01:47:44.708Z,82.06
2023-04-09T01:48:42.216Z,81.46
2023-04-09T01:49:40.930Z,80.82
2023-04-09T01:50:37.702Z,80.91
2023-04-09T01:51:34.582Z,81.54
2023-04-09T01:52:31.631Z,82.41
2023-04-09T01:53:28.506Z,83.11
2023-04-09T01:54:25.337Z,83.72
2023-04-09T01:55:21.953Z,84.06
2023-04-09T01:56:18.648Z,84.71
2023-04-09T01:57:15.469Z,84.80
2023-04-09T01:58:13.967Z,84.78
2023-04-09T01:59:10.854Z,84.96
2023-04-09T02:00:09.406Z,84.97
2023-04-09T02:01:12.131Z,84.04
2023-04-09T02:02:17.812Z,82.92
2023-04-09T02:03:26.732Z,82.65
2023-04-09T02:04:29.940Z,82.51
2023-04-09T02:05:31.916Z,82.45
2023-04-09T02:06:40.493Z,83.33
2023-04-09T02:07:42.716Z,84.07
2023-04-09T02:08:40.386Z,84.71
2023-04-09T02:09:39.484Z,84.68
2023-04-09T02:10:38.779Z,83.68
2023-04-09T02:11:40.295Z,83.28
2023-04-09T02:12:38.519Z,83.16
2023-04-09T02:13:36.448Z,82.90
2023-04-09T02:14:33.530Z,83.59
2023-04-09T02:15:33.082Z,83.93
2023-04-09T02:16:31.953Z,83.25
2023-04-09T02:17:28.715Z,82.93
2023-04-09T02:18:28.616Z,83.19
2023-04-09T02:19:25.407Z,83.61
2023-04-09T02:20:22.062Z,83.82
2023-04-09T02:21:18.788Z,83.78
2023-04-09T02:22:17.212Z,83.56
2023-04-09T02:23:16.333Z,83.62
2023-04-09T02:24:12.957Z,83.28
2023-04-09T02:25:09.799Z,82.76
2023-04-09T02:26:06.458Z,83.51
2023-04-09T02:27:03.291Z,82.45
2023-04-09T02:28:01.126Z,82.86
2023-04-09T02:28:57.693Z,84.23
2023-04-09T02:29:54.330Z,84.77
2023-04-09T02:30:51.080Z,84.85
2023-04-09T02:31:47.723Z,84.66
2023-04-09T02:32:44.378Z,84.94
2023-04-09T02:33:41.401Z,85.20
2023-04-09T02:34:38.032Z,85.37
2023-04-09T02:35:34.890Z,85.20
2023-04-09T02:36:31.644Z,85.19
2023-04-09T02:37:28.269Z,84.43
2023-04-09T02:38:25.051Z,83.75
2023-04-09T02:39:21.644Z,83.83
2023-04-09T02:40:18.361Z,83.73
2023-04-09T02:41:15.137Z,84.60
2023-04-09T02:42:11.722Z,84.96
2023-04-09T02:43:09.153Z,85.21
2023-04-09T02:44:05.893Z,85.23
2023-04-09T02:45:02.518Z,85.09
2023-04-09T02:45:59.285Z,84.63
2023-04-09T02:46:55.947Z,84.79
2023-04-09T02:47:52.551Z,84.74
2023-04-09T02:48:49.162Z,84.24
2023-04-09T02:49:45.808Z,84.18
2023-04-09T02:50:42.429Z,84.05
2023-04-09T02:51:39.033Z,82.90
2023-04-09T02:52:35.728Z,83.11
2023-04-09T02:53:32.314Z,83.77
2023-04-09T02:54:28.897Z,84.19
2023-04-09T02:55:25.772Z,84.18
2023-04-09T02:56:22.356Z,84.18
2023-04-09T02:57:18.994Z,84.62
2023-04-09T02:58:15.764Z,85.10
2023-04-09T02:59:12.447Z,84.51
2023-04-09T03:00:10.140Z,83.52
2023-04-09T03:01:06.778Z,83.42
2023-04-09T03:02:03.431Z,83.35
2023-04-09T03:03:00.171Z,83.46
2023-04-09T03:03:56.992Z,82.98
2023-04-09T03:04:53.747Z,83.10
2023-04-09T03:05:50.368Z,82.82
2023-04-09T03:06:46.936Z,83.46
2023-04-09T03:07:43.539Z,83.21
2023-04-09T03:08:40.262Z,83.24
2023-04-09T03:09:36.908Z,83.11
2023-04-09T03:10:33.562Z,83.01
2023-04-09T03:11:30.384Z,82.79
2023-04-09T03:12:27.374Z,82.65
2023-04-09T03:13:24.024Z,82.74
2023-04-09T03:14:20.656Z,83.40
2023-04-09T03:15:17.394Z,84.07
2023-04-09T03:16:13.999Z,84.02
2023-04-09T03:17:10.792Z,83.68
2023-04-09T03:18:07.591Z,82.40
2023-04-09T03:19:04.215Z,82.88
2023-04-09T03:20:00.894Z,82.51
2023-04-09T03:20:57.459Z,82.46
2023-04-09T03:21:54.023Z,81.80
2023-04-09T03:22:50.647Z,81.82
2023-04-09T03:23:47.300Z,81.79
2023-04-09T03:24:43.874Z,81.25
2023-04-09T03:25:40.519Z,81.09
2023-04-09T03:26:37.178Z,81.78
2023-04-09T03:27:33.831Z,82.88
2023-04-09T03:28:31.234Z,83.94
2023-04-09T03:29:27.824Z,84.03
2023-04-09T03:30:24.453Z,83.59
2023-04-09T03:31:21.144Z,83.38
2023-04-09T03:32:19.112Z,83.76
2023-04-09T03:33:15.811Z,83.99
2023-04-09T03:34:12.400Z,84.00
2023-04-09T03:35:09.151Z,84.85
2023-04-09T03:36:06.372Z,85.88
2023-04-09T03:37:03.012Z,85.96
2023-04-09T03:37:59.643Z,85.83
2023-04-09T03:38:56.366Z,86.23
2023-04-09T03:39:52.990Z,86.71
2023-04-09T03:40:49.621Z,86.70
2023-04-09T03:41:46.320Z,86.09
2023-04-09T03:42:43.686Z,86.22
2023-04-09T03:43:40.348Z,86.11
2023-04-09T03:44:36.954Z,85.51
2023-04-09T03:45:33.570Z,84.98
2023-04-09T03:46:30.204Z,85.18
2023-04-09T03:47:26.902Z,85.50
2023-04-09T03:48:23.530Z,85.76
2023-04-09T03:49:20.092Z,84.93
2023-04-09T03:50:16.738Z,84.13
2023-04-09T03:51:14.445Z,84.24
2023-04-09T03:52:11.108Z,84.22
2023-04-09T03:53:08.169Z,84.79
2023-04-09T03:54:04.777Z,84.97
2023-04-09T03:55:03.501Z,84.51
2023-04-09T03:56:01.698Z,84.37
2023-04-09T03:56:58.480Z,84.44
2023-04-09T03:57:55.089Z,84.97
2023-04-09T03:58:51.949Z,85.17
2023-04-09T03:59:48.909Z,85.62
2023-04-09T04:00:45.754Z,86.05
2023-04-09T04:01:42.563Z,85.42
2023-04-09T04:02:39.678Z,85.26
2023-04-09T04:03:36.976Z,85.33
2023-04-09T04:04:33.866Z,85.41
2023-04-09T04:05:30.850Z,85.48
2023-04-09T04:06:27.885Z,85.03
2023-04-09T04:07:24.510Z,85.42
2023-04-09T04:08:21.066Z,85.85
2023-04-09T04:09:17.821Z,85.67
2023-04-09T04:10:14.562Z,85.95
2023-04-09T04:11:11.336Z,85.75
2023-04-09T04:12:07.967Z,86.07
2023-04-09T04:13:06.645Z,86.17
2023-04-09T04:14:03.252Z,86.52
2023-04-09T04:15:01.262Z,86.09
2023-04-09T04:15:57.944Z,85.82
2023-04-09T04:16:54.604Z,85.85
2023-04-09T04:17:51.259Z,85.82
2023-04-09T04:18:47.886Z,86.24
2023-04-09T04:19:44.484Z,86.56
2023-04-09T04:20:41.079Z,86.43
2023-04-09T04:21:37.712Z,86.59
2023-04-09T04:22:35.455Z,86.64
2023-04-09T04:23:32.092Z,86.73
2023-04-09T04:24:28.824Z,87.06
2023-04-09T04:25:25.642Z,87.32
2023-04-09T04:26:22.229Z,87.10
2023-04-09T04:27:19.034Z,86.74
2023-04-09T04:28:15.762Z,87.31
2023-04-09T04:29:12.352Z,86.87
2023-04-09T04:30:09.545Z,86.82
2023-04-09T04:31:13.020Z,86.28
2023-04-09T04:32:09.662Z,85.49
2023-04-09T04:33:06.255Z,85.21
2023-04-09T04:34:02.936Z,85.09
2023-04-09T04:34:59.600Z,84.10
2023-04-09T04:36:06.423Z,83.19
2023-04-09T04:37:03.006Z,83.33
2023-04-09T04:37:59.636Z,83.15
2023-04-09T04:38:56.213Z,83.29
2023-04-09T04:39:52.780Z,83.89
2023-04-09T04:40:49.355Z,83.34
2023-04-09T04:41:45.937Z,82.16
2023-04-09T04:42:42.540Z,82.30
2023-04-09T04:43:41.440Z,82.87
2023-04-09T04:44:38.094Z,83.79
2023-04-09T04:45:34.756Z,84.03
2023-04-09T04:46:31.579Z,84.17
2023-04-09T04:47:28.128Z,84.08
2023-04-09T04:48:24.913Z,84.29
2023-04-09T04:49:21.494Z,84.28
2023-04-09T04:50:18.131Z,83.89
2023-04-09T04:51:14.787Z,84.70
2023-04-09T04:52:11.621Z,84.18
2023-04-09T04:53:08.316Z,84.82
2023-04-09T04:54:04.959Z,84.78
2023-04-09T04:55:01.517Z,85.00
2023-04-09T04:55:58.201Z,84.67
2023-04-09T04:56:54.804Z,84.35
2023-04-09T04:57:52.644Z,83.53
2023-04-09T04:58:49.283Z,84.20
2023-04-09T04:59:45.881Z,83.66
2023-04-09T05:00:42.536Z,83.25
2023-04-09T05:01:39.245Z,84.35
2023-04-09T05:02:35.961Z,84.26
2023-04-09T05:03:32.813Z,84.09
2023-04-09T05:04:29.512Z,83.08
2023-04-09T05:05:26.090Z,82.95
2023-04-09T05:06:22.879Z,83.55
2023-04-09T05:07:19.484Z,83.58
2023-04-09T05:08:16.166Z,84.04
2023-04-09T05:09:12.968Z,84.37
2023-04-09T05:10:09.806Z,84.07
2023-04-09T05:11:06.399Z,83.85
2023-04-09T05:12:03.064Z,83.48
2023-04-09T05:12:59.843Z,83.10
2023-04-09T05:13:56.642Z,82.36
2023-04-09T05:14:53.284Z,82.67
2023-04-09T05:15:49.922Z,82.78
2023-04-09T05:16:46.866Z,83.02
2023-04-09T05:17:43.907Z,83.42
2023-04-09T05:18:40.723Z,82.29
2023-04-09T05:19:37.394Z,81.58
2023-04-09T05:20:34.779Z,81.16
2023-04-09T05:21:32.019Z,81.14
2023-04-09T05:22:28.666Z,81.60
2023-04-09T05:23:25.613Z,81.40
2023-04-09T05:24:22.226Z,81.46
2023-04-09T05:25:18.938Z,81.72
2023-04-09T05:26:15.616Z,81.32
2023-04-09T05:27:12.211Z,81.60
2023-04-09T05:28:11.207Z,82.63
2023-04-09T05:29:07.774Z,82.27
2023-04-09T05:30:04.564Z,81.03
2023-04-09T05:31:01.751Z,80.85
2023-04-09T05:31:58.806Z,80.83
2023-04-09T05:32:55.539Z,81.78
2023-04-09T05:33:52.948Z,81.34
2023-04-09T05:34:49.578Z,81.26
2023-04-09T05:35:46.256Z,82.55
2023-04-09T05:36:42.877Z,82.09
2023-04-09T05:37:39.488Z,81.79
2023-04-09T05:38:36.042Z,81.71
2023-04-09T05:39:33.124Z,81.11
2023-04-09T05:40:29.733Z,80.79
2023-04-09T05:41:26.351Z,80.50
2023-04-09T05:42:23.142Z,80.37
2023-04-09T05:43:19.736Z,80.88
2023-04-09T05:44:16.326Z,79.93
2023-04-09T05:45:12.965Z,79.71
2023-04-09T05:46:10.307Z,80.48
2023-04-09T05:47:07.276Z,80.65
2023-04-09T05:48:04.118Z,80.84
2023-04-09T05:49:00.974Z,80.96
2023-04-09T05:49:57.601Z,81.20
2023-04-09T05:50:55.373Z,80.41
2023-04-09T05:51:52.684Z,79.58
2023-04-09T05:52:49.237Z,78.59
2023-04-09T05:53:45.822Z,77.40
2023-04-09T05:54:42.427Z,78.06
2023-04-09T05:55:38.985Z,79.35
2023-04-09T05:56:35.606Z,79.34
2023-04-09T05:57:32.725Z,80.27
2023-04-09T05:58:29.708Z,80.86
2023-04-09T05:59:27.091Z,80.53
2023-04-09T06:00:23.867Z,79.51
2023-04-09T06:01:21.159Z,78.86
2023-04-09T06:02:18.227Z,79.01
2023-04-09T06:03:15.019Z,77.97
2023-04-09T06:04:11.937Z,78.86
2023-04-09T06:05:09.184Z,78.40
2023-04-09T06:06:05.936Z,78.33
2023-04-09T06:07:02.649Z,77.45
2023-04-09T06:07:59.247Z,76.96
2023-04-09T06:08:55.835Z,76.25
2023-04-09T06:09:52.401Z,76.43
2023-04-09T06:10:49.006Z,76.68
2023-04-09T06:11:45.806Z,75.71
2023-04-09T06:12:42.381Z,75.37
2023-04-09T06:13:39.614Z,74.72
2023-04-09T06:14:36.171Z,76.07
2023-04-09T06:15:32.821Z,76.05
2023-04-09T06:16:29.528Z,75.70
2023-04-09T06:17:26.168Z,74.77
2023-04-09T06:18:22.748Z,73.67
2023-04-09T06:19:19.657Z,74.20
2023-04-09T06:20:16.539Z,74.08
2023-04-09T06:21:16.174Z,74.05
2023-04-09T06:22:12.782Z,74.07
2023-04-09T06:23:09.385Z,73.57
2023-04-09T06:24:06.477Z,74.95
2023-04-09T06:25:03.408Z,76.52
2023-04-09T06:26:00.434Z,75.60
2023-04-09T06:26:57.031Z,75.99
2023-04-09T06:27:53.724Z,74.47
2023-04-09T06:28:50.442Z,74.18
2023-04-09T06:29:47.009Z,73.50
2023-04-09T06:30:43.558Z,74.12
2023-04-09T06:31:40.271Z,75.05
2023-04-09T06:32:46.980Z,75.51
2023-04-09T06:33:50.562Z,74.96
2023-04-09T06:34:48.319Z,75.36
2023-04-09T06:35:45.026Z,74.93
2023-04-09T06:36:41.708Z,74.90
2023-04-09T06:37:38.298Z,74.20
2023-04-09T06:38:34.990Z,74.34
2023-04-09T06:39:33.102Z,74.15
2023-04-09T06:40:30.383Z,73.64
2023-04-09T06:41:26.923Z,73.95
2023-04-09T06:42:23.533Z,74.07
2023-04-09T06:43:20.116Z,73.75
2023-04-09T06:44:16.765Z,73.78
2023-04-09T06:45:13.358Z,73.33
2023-04-09T06:46:09.984Z,73.22
2023-04-09T06:47:08.820Z,72.86
2023-04-09T06:48:07.215Z,73.10
2023-04-09T06:49:03.828Z,72.86
2023-04-09T06:50:00.709Z,72.90
2023-04-09T06:50:57.429Z,72.88
2023-04-09T06:51:54.045Z,72.28
2023-04-09T06:52:51.545Z,72.00
2023-04-09T06:53:48.403Z,71.96
2023-04-09T06:54:46.240Z,71.92
2023-04-09T06:55:43.240Z,71.36
2023-04-09T06:56:39.915Z,71.76
2023-04-09T06:57:36.591Z,71.52
2023-04-09T06:58:33.365Z,71.17
2023-04-09T06:59:30.001Z,71.06
2023-04-09T07:00:26.999Z,71.24
2023-04-09T07:01:23.712Z,70.98
2023-04-09T07:02:20.646Z,70.09
2023-04-09T07:03:17.521Z,69.51
2023-04-09T07:04:14.290Z,69.82
2023-04-09T07:05:10.981Z,70.65
2023-04-09T07:06:07.553Z,72.15
2023-04-09T07:07:04.213Z,70.79
2023-04-09T07:08:00.830Z,69.58
2023-04-09T07:08:57.395Z,70.62
2023-04-09T07:09:54.088Z,70.99
2023-04-09T07:10:50.709Z,72.12
2023-04-09T07:11:47.736Z,70.96
2023-04-09T07:12:44.471Z,70.69
2023-04-09T07:13:41.117Z,70.46
2023-04-09T07:14:37.861Z,71.21
2023-04-09T07:15:34.588Z,71.43
2023-04-09T07:16:31.223Z,71.35
2023-04-09T07:17:28.117Z,73.55
2023-04-09T07:18:24.734Z,73.97
2023-04-09T07:19:21.487Z,73.30
2023-04-09T07:20:18.170Z,72.59
2023-04-09T07:21:14.724Z,73.29
2023-04-09T07:22:11.264Z,73.44
2023-04-09T07:23:07.886Z,73.30
2023-04-09T07:24:04.635Z,72.76
2023-04-09T07:25:01.357Z,71.76
2023-04-09T07:25:57.902Z,71.48
2023-04-09T07:26:54.633Z,73.60
2023-04-09T07:27:51.280Z,74.63
2023-04-09T07:28:47.826Z,74.21
2023-04-09T07:29:44.978Z,74.30
2023-04-09T07:30:42.207Z,73.72
2023-04-09T07:31:38.919Z,72.32
2023-04-09T07:32:36.136Z,73.10
2023-04-09T07:33:32.747Z,73.73
2023-04-09T07:34:29.575Z,74.54
2023-04-09T07:35:26.601Z,73.79
2023-04-09T07:36:23.330Z,74.11
2023-04-09T07:37:20.852Z,74.68
2023-04-09T07:38:17.455Z,74.81
2023-04-09T07:39:14.276Z,75.02
2023-04-09T07:40:11.573Z,75.16
2023-04-09T07:41:11.074Z,75.19
2023-04-09T07:42:07.624Z,73.59
2023-04-09T07:43:05.240Z,72.26
2023-04-09T07:44:03.522Z,72.25
2023-04-09T07:45:00.773Z,72.28
2023-04-09T07:45:57.420Z,72.31
2023-04-09T07:46:54.127Z,72.74
2023-04-09T07:47:50.873Z,72.91
2023-04-09T07:48:49.489Z,73.65
2023-04-09T07:49:46.128Z,73.85
2023-04-09T07:50:42.793Z,73.83
2023-04-09T07:51:39.452Z,73.14
2023-04-09T07:52:36.375Z,72.96
2023-04-09T07:53:33.178Z,72.13
2023-04-09T07:54:31.495Z,70.99
2023-04-09T07:55:28.538Z,69.09
2023-04-09T07:56:25.603Z,67.97
2023-04-09T07:57:22.236Z,65.69
2023-04-09T07:58:18.932Z,66.90
2023-04-09T07:59:15.798Z,67.71
2023-04-09T08:00:12.837Z,67.07
2023-04-09T08:01:09.413Z,68.57
2023-04-09T08:02:06.186Z,65.36
2023-04-09T08:03:04.082Z,63.87
2023-04-09T08:04:01.072Z,65.06
2023-04-09T08:04:58.171Z,66.01
2023-04-09T08:05:54.892Z,66.26
2023-04-09T08:06:51.876Z,67.19
2023-04-09T08:07:48.512Z,66.26
2023-04-09T08:08:45.113Z,67.69
2023-04-09T08:09:41.907Z,67.28
2023-04-09T08:10:38.612Z,68.25
2023-04-09T08:11:35.444Z,68.92
2023-04-09T08:12:32.046Z,68.92
2023-04-09T08:13:28.679Z,67.90
2023-04-09T08:14:25.519Z,68.66
2023-04-09T08:15:22.378Z,69.17
2023-04-09T08:16:24.592Z,68.00
2023-04-09T08:17:22.302Z,67.59
2023-04-09T08:18:19.016Z,66.86
2023-04-09T08:19:17.316Z,68.69
2023-04-09T08:20:14.068Z,68.67
2023-04-09T08:21:10.871Z,68.47
2023-04-09T08:22:07.487Z,68.11
2023-04-09T08:23:04.069Z,68.46
2023-04-09T08:24:05.100Z,67.34
2023-04-09T08:25:02.764Z,68.53
2023-04-09T08:25:59.660Z,67.95
2023-04-09T08:26:57.817Z,68.08
2023-04-09T08:27:54.462Z,66.51
2023-04-09T08:28:52.384Z,66.23
2023-04-09T08:29:49.222Z,65.80
2023-04-09T08:30:47.764Z,66.25
2023-04-09T08:31:44.751Z,66.01
2023-04-09T08:32:41.815Z,65.40
2023-04-09T08:33:38.457Z,66.58
2023-04-09T08:34:35.067Z,66.54
2023-04-09T08:35:31.912Z,65.71
2023-04-09T08:36:28.989Z,66.56
2023-04-09T08:37:25.684Z,64.77
2023-04-09T08:38:22.300Z,63.63
2023-04-09T08:39:20.226Z,62.63
2023-04-09T08:40:18.920Z,63.47
2023-04-09T08:41:24.823Z,64.35
2023-04-09T08:42:24.093Z,63.64
2023-04-09T08:43:26.999Z,64.04
2023-04-09T08:44:30.995Z,62.40
2023-04-09T08:45:27.639Z,61.54
2023-04-09T08:46:24.832Z,62.62
2023-04-09T08:47:21.875Z,61.58
2023-04-09T08:48:18.984Z,62.31
2023-04-09T08:49:15.795Z,63.92
2023-04-09T08:50:13.536Z,64.26
2023-04-09T08:51:14.406Z,63.75
2023-04-09T08:52:11.029Z,64.86
2023-04-09T08:53:10.090Z,64.43
2023-04-09T08:54:07.038Z,64.85
2023-04-09T08:55:03.805Z,63.55
2023-04-09T08:56:00.592Z,63.70
2023-04-09T08:56:57.654Z,63.32
2023-04-09T08:57:54.195Z,62.19
2023-04-09T08:58:51.343Z,62.30
2023-04-09T08:59:48.187Z,59.38
2023-04-09T09:00:44.863Z,59.78
2023-04-09T09:01:41.574Z,59.46
2023-04-09T09:02:39.472Z,58.26
2023-04-09T09:03:56.940Z,59.52
2023-04-09T09:04:55.224Z,60.17
2023-04-09T09:05:51.809Z,58.85
2023-04-09T09:06:48.452Z,58.38
2023-04-09T09:07:53.971Z,56.81
2023-04-09T09:09:08.656Z,58.39
2023-04-09T09:10:05.668Z,59.44
2023-04-09T09:11:02.302Z,59.19
2023-04-09T09:11:58.945Z,57.15
2023-04-09T09:12:55.588Z,57.00
2023-04-09T09:14:01.570Z,59.03
2023-04-09T09:14:58.478Z,58.95
2023-04-09T09:16:12.032Z,61.24
2023-04-09T09:17:16.717Z,60.07
2023-04-09T09:18:13.686Z,59.90
2023-04-09T09:19:25.778Z,59.49
2023-04-09T09:20:23.171Z,59.84
2023-04-09T09:21:19.838Z,60.78
2023-04-09T09:22:16.847Z,59.39
2023-04-09T09:23:13.590Z,60.76
2023-04-09T09:24:19.002Z,59.95
2023-04-09T09:25:15.845Z,57.77
2023-04-09T09:26:18.866Z,57.16
2023-04-09T09:27:40.463Z,58.05
2023-04-09T09:28:37.201Z,56.40
2023-04-09T09:29:41.327Z,58.04
2023-04-09T09:30:39.998Z,56.19
2023-04-09T09:31:47.511Z,58.19
2023-04-09T09:32:44.175Z,56.85
2023-04-09T09:33:41.333Z,56.18
2023-04-09T09:34:37.961Z,55.50
2023-04-09T09:35:52.006Z,54.98
2023-04-09T09:36:49.169Z,56.92
2023-04-09T09:37:46.100Z,56.52
2023-04-09T09:38:58.491Z,57.03
2023-04-09T09:39:55.954Z,57.66
2023-04-09T09:40:52.647Z,57.15
2023-04-09T09:42:07.841Z,59.40
2023-04-09T09:43:04.549Z,60.14
2023-04-09T09:44:01.383Z,58.54
2023-04-09T09:44:59.463Z,56.04
2023-04-09T09:45:57.391Z,55.02
2023-04-09T09:46:54.826Z,54.73
2023-04-09T09:47:54.210Z,54.61
2023-04-09T09:48:51.180Z,53.72
2023-04-09T09:49:50.380Z,53.56
2023-04-09T09:50:49.085Z,52.61
2023-04-09T09:51:45.787Z,53.95
2023-04-09T09:52:46.172Z,55.17
2023-04-09T09:53:47.710Z,52.73
2023-04-09T09:54:52.238Z,52.59
2023-04-09T09:55:53.721Z,52.81
2023-04-09T09:56:53.009Z,51.88
2023-04-09T09:57:51.632Z,51.62
2023-04-09T09:59:13.296Z,53.19
2023-04-09T10:00:12.661Z,53.39
2023-04-09T10:01:13.340Z,52.98
2023-04-09T10:02:18.947Z,52.43
2023-04-09T10:03:25.194Z,52.87
2023-04-09T10:04:23.700Z,53.86
2023-04-09T10:05:25.028Z,53.59
2023-04-09T10:06:22.278Z,53.47
2023-04-09T10:07:21.445Z,53.44
2023-04-09T10:08:18.378Z,53.66
2023-04-09T10:09:15.678Z,52.69
2023-04-09T10:10:12.498Z,52.72
2023-04-09T10:11:09.155Z,53.97
2023-04-09T10:12:07.483Z,52.76
2023-04-09T10:13:07.599Z,54.45
2023-04-09T10:14:05.420Z,53.79
2023-04-09T10:15:05.062Z,53.93
2023-04-09T10:16:02.534Z,52.89
2023-04-09T10:16:59.474Z,54.37
2023-04-09T10:17:56.790Z,52.23
2023-04-09T10:18:57.470Z,51.81
2023-04-09T10:20:07.730Z,52.53
2023-04-09T10:21:14.811Z,50.70
2023-04-09T10:22:13.825Z,48.77
2023-04-09T10:23:19.559Z,49.83
2023-04-09T10:24:17.182Z,50.09
2023-04-09T10:25:14.644Z,50.97
2023-04-09T10:26:11.439Z,51.05
2023-04-09T10:27:15.712Z,51.22
2023-04-09T10:28:18.585Z,51.86
2023-04-09T10:29:16.952Z,51.89
2023-04-09T10:30:33.178Z,51.08
2023-04-09T10:31:50.047Z,49.58
2023-04-09T10:32:46.857Z,48.97
2023-04-09T10:33:43.705Z,49.57
2023-04-09T10:34:45.189Z,51.22
2023-04-09T10:35:42.380Z,51.35
2023-04-09T10:36:39.169Z,49.90
2023-04-09T10:37:35.848Z,49.61
2023-04-09T10:38:42.892Z,47.89
2023-04-09T10:39:49.996Z,47.75
2023-04-09T10:40:51.005Z,48.41
2023-04-09T10:41:49.985Z,47.16
2023-04-09T10:42:47.596Z,47.11
2023-04-09T10:43:47.386Z,44.70
2023-04-09T10:44:44.486Z,44.95
2023-04-09T10:45:42.611Z,45.12
2023-04-09T10:46:42.333Z,45.76
2023-04-09T10:47:41.386Z,44.11
2023-04-09T10:48:38.065Z,44.61
2023-04-09T10:49:41.964Z,44.11
2023-04-09T10:50:39.138Z,45.74
2023-04-09T10:51:39.291Z,44.25
2023-04-09T10:52:35.946Z,43.92
2023-04-09T10:53:32.721Z,43.66
2023-04-09T10:54:35.456Z,44.12
2023-04-09T10:55:40.372Z,46.41
2023-04-09T10:56:36.995Z,46.20
2023-04-09T10:57:33.626Z,47.15
2023-04-09T10:58:30.303Z,47.41
2023-04-09T10:59:26.954Z,47.77
2023-04-09T11:00:23.485Z,46.84
2023-04-09T11:01:24.257Z,46.57
2023-04-09T11:02:39.710Z,46.98
2023-04-09T11:03:44.713Z,46.24
2023-04-09T11:04:50.761Z,46.44
2023-04-09T11:05:50.746Z,45.33
2023-04-09T11:06:49.026Z,46.18
2023-04-09T11:07:49.724Z,46.66
2023-04-09T11:08:47.300Z,46.23
2023-04-09T11:09:43.841Z,44.99
2023-04-09T11:10:45.251Z,45.14
2023-04-09T11:11:41.884Z,45.32
2023-04-09T11:12:38.568Z,46.82
2023-04-09T11:13:35.334Z,45.88
2023-04-09T11:14:33.570Z,45.08
2023-04-09T11:15:32.315Z,44.02
2023-04-09T11:16:32.592Z,44.25
2023-04-09T11:17:29.530Z,43.68
2023-04-09T11:18:27.936Z,45.10
2023-04-09T11:19:24.783Z,44.58
2023-04-09T11:20:23.947Z,44.24
2023-04-09T11:21:20.547Z,42.11
2023-04-09T11:22:17.413Z,43.80
2023-04-09T11:23:15.707Z,43.15
2023-04-09T11:24:12.881Z,44.25
2023-04-09T11:25:09.676Z,43.86
2023-04-09T11:26:06.902Z,43.46
2023-04-09T11:27:03.527Z,43.87
2023-04-09T11:28:03.204Z,43.90
2023-04-09T11:29:05.217Z,44.75
2023-04-09T11:30:01.823Z,44.38
2023-04-09T11:30:58.511Z,44.19
2023-04-09T11:31:55.211Z,44.79
2023-04-09T11:32:52.063Z,43.58
2023-04-09T11:33:51.389Z,44.79
2023-04-09T11:34:47.972Z,43.31
2023-04-09T11:35:44.890Z,42.71
2023-04-09T11:36:41.478Z,43.80
2023-04-09T11:37:38.410Z,42.11
2023-04-09T11:38:37.102Z,42.82
2023-04-09T11:39:37.289Z,42.38
2023-04-09T11:40:34.037Z,43.32
2023-04-09T11:41:34.011Z,43.59
2023-04-09T11:42:35.181Z,42.92
2023-04-09T11:43:31.802Z,42.16
2023-04-09T11:44:28.542Z,42.35
2023-04-09T11:45:29.979Z,41.12
2023-04-09T11:46:27.522Z,42.74
2023-04-09T11:47:24.937Z,42.55
2023-04-09T11:48:23.728Z,42.28
2023-04-09T11:49:21.041Z,42.40
2023-04-09T11:50:18.043Z,43.19
2023-04-09T11:51:14.974Z,42.62
2023-04-09T11:52:11.930Z,42.00
2023-04-09T11:53:22.531Z,42.91
2023-04-09T11:54:19.186Z,42.79
2023-04-09T11:55:29.661Z,43.70
2023-04-09T11:56:29.449Z,42.64
2023-04-09T11:57:26.444Z,44.33
2023-04-09T11:58:27.987Z,44.55
2023-04-09T11:59:24.690Z,44.54
2023-04-09T12:00:24.757Z,43.82
2023-04-09T12:01:22.889Z,43.87
2023-04-09T12:02:19.835Z,46.34
2023-04-09T12:03:17.020Z,47.99
2023-04-09T12:04:20.487Z,49.34
2023-04-09T12:05:30.588Z,49.80
2023-04-09T12:06:27.970Z,50.52
2023-04-09T12:07:32.526Z,49.86
2023-04-09T12:08:29.433Z,49.20
2023-04-09T12:09:26.246Z,50.22
2023-04-09T12:10:30.450Z,50.56
2023-04-09T12:11:29.366Z,51.16
2023-04-09T12:12:25.971Z,51.04
2023-04-09T12:13:33.029Z,52.19
2023-04-09T12:14:29.615Z,52.73
2023-04-09T12:15:31.114Z,53.26
2023-04-09T12:16:31.190Z,51.58
2023-04-09T12:17:27.904Z,51.96
2023-04-09T12:18:24.773Z,50.45
2023-04-09T12:19:25.792Z,51.11
2023-04-09T12:20:33.721Z,52.51
2023-04-09T12:21:49.874Z,52.54
2023-04-09T12:22:46.428Z,51.84
2023-04-09T12:23:43.025Z,53.18
2023-04-09T12:24:39.708Z,55.19
2023-04-09T12:25:38.516Z,56.51
2023-04-09T12:26:35.376Z,57.12
2023-04-09T12:27:33.891Z,57.52
2023-04-09T12:28:30.914Z,57.14
2023-04-09T12:29:29.015Z,56.72
2023-04-09T12:30:25.712Z,58.28
2023-04-09T12:31:22.366Z,58.05
2023-04-09T12:32:19.448Z,58.59